Time;durP1;ratioP1;P1;durP2;ratioP2;P2;SDS_P1;SDS_P2;PMS_P1;PMS_P2;Temp;Humidity;BMP_temperature;BMP_pressure;BME280_temperature;BME280_humidity;BME280_pressure;Samples;Min_cycle;Max_cycle;Signal;HPM_P1;HPM_P2
2022/09/13 00:00:10;;;;;;;6.32;2.83;;;;;;;;;;5078900;28;20139;-75
2022/09/13 00:02:36;;;;;;;4.60;2.80;;;;;;;;;;5078066;28;20027;-76
2022/09/13 00:05:02;;;;;;;4.70;3.05;;;;;;;;;;5075334;28;20072;-75
2022/09/13 00:07:28;;;;;;;8.10;3.22;;;;;;;;;;5079019;28;20021;-75
2022/09/13 00:09:55;;;;;;;7.85;3.22;;;;;;;;;;5075896;28;20028;-76
2022/09/13 00:12:21;;;;;;;6.25;3.45;;;;;;;;;;5079764;28;20083;-76
2022/09/13 00:14:47;;;;;;;4.30;3.00;;;;;;;;;;5075411;28;20060;-76
2022/09/13 00:17:13;;;;;;;3.85;3.30;;;;;;;;;;5076371;28;20479;-75
2022/09/13 00:19:39;;;;;;;7.07;3.45;;;;;;;;;;5078275;28;20090;-75
2022/09/13 00:22:05;;;;;;;4.97;3.28;;;;;;;;;;5075573;28;20136;-75
2022/09/13 00:24:32;;;;;;;5.75;3.00;;;;;;;;;;5083823;28;20027;-75
2022/09/13 00:26:59;;;;;;;4.53;3.22;;;;;;;;;;5075413;28;20032;-76
2022/09/13 00:29:26;;;;;;;6.60;3.10;;;;;;;;;;5080833;28;20054;-75
2022/09/13 00:31:52;;;;;;;8.40;3.00;;;;;;;;;;5077661;28;20028;-75
2022/09/13 00:34:18;;;;;;;6.40;3.10;;;;;;;;;;5079606;28;20028;-75
2022/09/13 00:36:44;;;;;;;8.65;3.50;;;;;;;;;;5079226;28;20032;-75
2022/09/13 00:39:11;;;;;;;4.97;3.05;;;;;;;;;;5079087;28;20587;-76
2022/09/13 00:41:37;;;;;;;5.95;3.00;;;;;;;;;;5079144;28;20025;-75
2022/09/13 00:44:05;;;;;;;5.60;2.88;;;;;;;;;;5077635;28;20029;-75
2022/09/13 00:46:32;;;;;;;7.53;3.90;;;;;;;;;;5076965;28;20027;-75
2022/09/13 00:49:03;;;;;;;5.50;3.03;;;;;;;;;;5074746;28;20021;-76
2022/09/13 00:51:30;;;;;;;6.38;3.03;;;;;;;;;;5074820;28;20108;-74
2022/09/13 00:53:58;;;;;;;6.22;3.53;;;;;;;;;;5081023;28;20032;-76
2022/09/13 00:56:30;;;;;;;8.35;4.30;;;;;;;;;;5074749;28;20392;-76
2022/09/13 00:58:59;;;;;;;5.10;3.17;;;;;;;;;;5080476;28;20024;-74
2022/09/13 01:01:28;;;;;;;6.40;3.50;;;;;;;;;;5075977;28;20039;-75
2022/09/13 01:03:54;;;;;;;5.47;3.47;;;;;;;;;;5082146;28;20077;-75
2022/09/13 01:06:24;;;;;;;5.70;3.22;;;;;;;;;;5076968;28;20115;-75
2022/09/13 01:08:52;;;;;;;6.82;3.35;;;;;;;;;;5075925;28;20476;-75
2022/09/13 01:11:31;;;;;;;4.95;3.05;;;;;;;;;;5077613;28;20764;-75
2022/09/13 01:13:58;;;;;;;4.28;2.38;;;;;;;;;;5078549;28;20036;-75
2022/09/13 01:16:24;;;;;;;5.65;3.28;;;;;;;;;;5078311;28;20032;-75
2022/09/13 01:18:50;;;;;;;7.93;3.20;;;;;;;;;;5076601;28;20027;-76
2022/09/13 01:21:35;;;;;;;7.40;3.67;;;;;;;;;;5077883;28;20755;-74
2022/09/13 01:24:20;;;;;;;5.00;3.00;;;;;;;;;;5077594;28;20040;-76
2022/09/13 01:27:08;;;;;;;4.40;2.50;;;;;;;;;;5077131;28;20035;-76
2022/09/13 01:29:34;;;;;;;4.90;2.80;;;;;;;;;;5073343;28;20047;-75
2022/09/13 01:32:00;;;;;;;4.97;2.70;;;;;;;;;;5076905;28;20483;-76
2022/09/13 01:34:45;;;;;;;5.03;2.90;;;;;;;;;;5077434;28;20496;-75
2022/09/13 01:37:25;;;;;;;6.72;3.83;;;;;;;;;;5078802;28;20035;-75
2022/09/13 01:39:52;;;;;;;3.40;2.60;;;;;;;;;;5077336;28;20032;-76
2022/09/13 01:42:28;;;;;;;4.95;2.92;;;;;;;;;;5081901;28;20507;-75
2022/09/13 01:45:00;;;;;;;4.90;3.25;;;;;;;;;;5076244;28;20029;-75
2022/09/13 01:47:33;;;;;;;3.72;2.72;;;;;;;;;;5079354;28;20094;-76
2022/09/13 01:50:06;;;;;;;8.98;2.97;;;;;;;;;;5071708;28;20024;-75
2022/09/13 01:52:51;;;;;;;6.03;2.90;;;;;;;;;;5072609;28;20059;-75
2022/09/13 01:55:30;;;;;;;5.67;3.27;;;;;;;;;;5073854;28;20039;-75
2022/09/13 01:58:23;;;;;;;6.40;2.78;;;;;;;;;;5079305;28;20285;-75
2022/09/13 02:00:55;;;;;;;4.05;2.90;;;;;;;;;;5058756;28;20036;-75
2022/09/13 02:03:28;;;;;;;6.53;2.80;;;;;;;;;;5069989;28;20527;-75
2022/09/13 02:05:57;;;;;;;7.65;2.83;;;;;;;;;;5074611;28;20039;-76
2022/09/13 02:08:40;;;;;;;5.85;2.65;;;;;;;;;;5070223;28;20437;-75
2022/09/13 02:11:11;;;;;;;4.90;2.85;;;;;;;;;;5076063;28;20107;-75
2022/09/13 02:13:49;;;;;;;6.85;2.95;;;;;;;;;;5073556;28;20085;-75
2022/09/13 02:16:17;;;;;;;5.32;2.55;;;;;;;;;;5075757;28;20481;-75
2022/09/13 02:18:47;;;;;;;6.57;2.53;;;;;;;;;;5069306;28;20024;-76
2022/09/13 02:21:33;;;;;;;5.72;3.05;;;;;;;;;;5076025;28;20086;-76
2022/09/13 02:24:05;;;;;;;5.30;2.65;;;;;;;;;;5067336;28;20772;-75
2022/09/13 02:26:34;;;;;;;4.45;2.70;;;;;;;;;;5073472;28;20111;-76
2022/09/13 02:29:02;;;;;;;5.75;2.80;;;;;;;;;;5077794;28;20054;-75
2022/09/13 02:31:35;;;;;;;4.75;2.85;;;;;;;;;;5068415;28;20031;-75
2022/09/13 02:34:04;;;;;;;3.70;2.78;;;;;;;;;;5070917;28;20047;-76
2022/09/13 02:36:33;;;;;;;6.50;2.75;;;;;;;;;;5076731;28;20497;-75
2022/09/13 02:39:18;;;;;;;4.30;3.25;;;;;;;;;;5079212;28;20499;-79
2022/09/13 02:41:44;;;;;;;;;;;;;;;;;;5072436;28;20024;-76
2022/09/13 02:44:29;;;;;;;6.78;2.60;;;;;;;;;;5074601;28;19970;-76
2022/09/13 02:46:59;;;;;;;7.05;2.70;;;;;;;;;;5077562;28;20119;-75
2022/09/13 02:49:44;;;;;;;6.38;2.72;;;;;;;;;;5075509;28;20016;-75
2022/09/13 02:52:13;;;;;;;8.07;3.17;;;;;;;;;;5072401;28;20047;-76
2022/09/13 02:54:42;;;;;;;5.60;2.90;;;;;;;;;;5075471;28;20064;-75
2022/09/13 02:57:13;;;;;;;5.15;3.13;;;;;;;;;;5080532;28;20058;-75
2022/09/13 02:59:39;;;;;;;3.60;2.97;;;;;;;;;;5072593;28;21270;-75
2022/09/13 03:02:10;;;;;;;11.73;3.00;;;;;;;;;;5072124;28;20089;-75
2022/09/13 03:04:36;;;;;;;5.97;2.92;;;;;;;;;;5075384;28;20056;-75
2022/09/13 03:07:03;;;;;;;5.72;2.60;;;;;;;;;;5071339;28;20486;-75
2022/09/13 03:09:29;;;;;;;6.80;3.25;;;;;;;;;;5077418;28;20028;-76
2022/09/13 03:12:01;;;;;;;4.97;3.00;;;;;;;;;;5075445;28;20027;-75
2022/09/13 03:14:30;;;;;;;3.63;2.47;;;;;;;;;;5071251;28;20132;-75
2022/09/13 03:17:21;;;;;;;4.63;2.63;;;;;;;;;;5071175;28;20140;-76
2022/09/13 03:19:47;;;;;;;6.03;2.95;;;;;;;;;;5073525;28;20499;-75
2022/09/13 03:22:27;;;;;;;4.78;2.63;;;;;;;;;;5077524;28;20743;-75
2022/09/13 03:25:08;;;;;;;5.68;2.60;;;;;;;;;;5075194;28;20107;-75
2022/09/13 03:27:54;;;;;;;5.82;2.80;;;;;;;;;;5070685;28;20415;-75
2022/09/13 03:30:20;;;;;;;4.88;3.08;;;;;;;;;;5059636;28;20477;-75
2022/09/13 03:32:47;;;;;;;3.28;2.75;;;;;;;;;;5073547;28;20128;-75
2022/09/13 03:35:27;;;;;;;3.70;2.60;;;;;;;;;;5077629;28;20060;-74
2022/09/13 03:38:05;;;;;;;5.75;2.90;;;;;;;;;;5070036;28;20186;-76
2022/09/13 03:40:34;;;;;;;4.60;2.60;;;;;;;;;;5075845;28;20107;-75
2022/09/13 03:43:03;;;;;;;7.20;3.00;;;;;;;;;;5079180;28;20056;-75
2022/09/13 03:45:32;;;;;;;4.75;2.70;;;;;;;;;;5072929;28;20020;-75
2022/09/13 03:47:59;;;;;;;6.18;2.78;;;;;;;;;;5073473;28;20032;-75
2022/09/13 03:50:25;;;;;;;7.85;4.38;;;;;;;;;;5073304;28;20043;-75
2022/09/13 03:52:56;;;;;;;4.60;2.60;;;;;;;;;;5073903;28;20473;-76
2022/09/13 03:55:22;;;;;;;5.30;3.47;;;;;;;;;;5075167;28;20898;-76
2022/09/13 03:57:48;;;;;;;4.90;3.00;;;;;;;;;;5074546;28;20016;-76
2022/09/13 04:00:16;;;;;;;4.55;2.80;;;;;;;;;;5067075;28;20515;-75
2022/09/13 04:02:43;;;;;;;7.43;3.00;;;;;;;;;;5075509;28;20027;-75
2022/09/13 04:05:09;;;;;;;5.35;2.60;;;;;;;;;;5077323;28;20047;-76
2022/09/13 04:07:35;;;;;;;3.08;2.28;;;;;;;;;;5074763;28;20561;-75
2022/09/13 04:10:01;;;;;;;3.25;2.78;;;;;;;;;;5067936;28;20626;-75
2022/09/13 04:12:30;;;;;;;3.53;2.10;;;;;;;;;;5075124;28;20020;-76
2022/09/13 04:14:56;;;;;;;4.38;2.38;;;;;;;;;;5074546;28;20033;-75
2022/09/13 04:17:22;;;;;;;3.35;2.28;;;;;;;;;;5070819;28;20066;-75
2022/09/13 04:19:48;;;;;;;4.70;2.50;;;;;;;;;;5073593;28;20024;-75
2022/09/13 04:22:15;;;;;;;6.07;2.83;;;;;;;;;;5074640;28;20051;-75
2022/09/13 04:24:42;;;;;;;6.68;2.58;;;;;;;;;;5070871;28;20067;-75
2022/09/13 04:27:09;;;;;;;4.05;2.40;;;;;;;;;;5076772;28;20046;-75
2022/09/13 04:29:35;;;;;;;5.50;2.53;;;;;;;;;;5075799;28;20024;-75
2022/09/13 04:32:01;;;;;;;3.10;2.50;;;;;;;;;;5066496;28;20035;-75
2022/09/13 04:34:27;;;;;;;5.63;2.90;;;;;;;;;;5066959;28;20376;-74
2022/09/13 04:36:54;;;;;;;5.82;2.67;;;;;;;;;;5065821;28;20048;-75
2022/09/13 04:39:20;;;;;;;3.05;2.33;;;;;;;;;;5064625;28;20029;-76
2022/09/13 04:41:47;;;;;;;6.82;2.88;;;;;;;;;;5066519;28;20067;-75
2022/09/13 04:44:15;;;;;;;4.68;2.72;;;;;;;;;;5066634;28;20182;-75
2022/09/13 04:46:41;;;;;;;2.60;2.40;;;;;;;;;;5066805;28;20020;-76
2022/09/13 04:49:09;;;;;;;4.15;2.60;;;;;;;;;;5065207;28;20028;-76
2022/09/13 04:51:35;;;;;;;4.63;2.65;;;;;;;;;;5057570;28;20104;-76
2022/09/13 04:54:01;;;;;;;9.77;2.78;;;;;;;;;;5061795;28;20102;-75
2022/09/13 04:56:27;;;;;;;5.07;2.40;;;;;;;;;;5065338;28;20020;-74
2022/09/13 04:58:54;;;;;;;8.20;2.90;;;;;;;;;;5067937;28;20507;-75
2022/09/13 05:01:21;;;;;;;4.45;2.20;;;;;;;;;;5068773;28;20028;-75
2022/09/13 05:03:47;;;;;;;5.07;2.45;;;;;;;;;;5068371;28;20115;-75
2022/09/13 05:06:16;;;;;;;3.17;2.70;;;;;;;;;;5065070;28;20056;-76
2022/09/13 05:08:43;;;;;;;8.07;2.80;;;;;;;;;;5064174;28;20988;-75
2022/09/13 05:11:09;;;;;;;4.43;2.47;;;;;;;;;;5069451;28;20050;-75
2022/09/13 05:13:36;;;;;;;3.78;2.30;;;;;;;;;;5066734;28;20024;-75
2022/09/13 05:16:04;;;;;;;3.97;2.50;;;;;;;;;;5069179;28;20590;-75
2022/09/13 05:18:32;;;;;;;4.20;2.58;;;;;;;;;;5070608;28;20033;-75
2022/09/13 05:20:59;;;;;;;7.13;2.72;;;;;;;;;;5056429;28;20415;-75
2022/09/13 05:23:26;;;;;;;3.55;2.25;;;;;;;;;;5069225;28;20028;-75
2022/09/13 05:25:56;;;;;;;3.63;2.60;;;;;;;;;;5069372;28;20074;-76
2022/09/13 05:28:22;;;;;;;4.72;2.70;;;;;;;;;;5068126;28;20044;-74
2022/09/13 05:30:56;;;;;;;3.67;2.55;;;;;;;;;;5065885;28;20020;-74
2022/09/13 05:33:23;;;;;;;5.18;3.00;;;;;;;;;;5067511;28;20016;-76
2022/09/13 05:35:50;;;;;;;7.75;3.35;;;;;;;;;;5067080;28;20031;-74
2022/09/13 05:38:16;;;;;;;5.10;2.95;;;;;;;;;;5067460;28;20016;-75
2022/09/13 05:40:42;;;;;;;5.35;2.60;;;;;;;;;;5069120;28;20072;-75
2022/09/13 05:43:08;;;;;;;4.32;2.65;;;;;;;;;;5069280;28;20017;-75
2022/09/13 05:45:34;;;;;;;3.58;2.67;;;;;;;;;;5069876;28;20025;-75
2022/09/13 05:48:00;;;;;;;5.45;2.58;;;;;;;;;;5068969;28;20055;-74
2022/09/13 05:50:26;;;;;;;6.32;2.50;;;;;;;;;;5068273;28;20501;-74
2022/09/13 05:52:53;;;;;;;6.15;2.95;;;;;;;;;;5066330;28;20025;-75
2022/09/13 05:55:20;;;;;;;4.22;2.85;;;;;;;;;;5068326;28;20138;-75
2022/09/13 05:57:46;;;;;;;3.83;2.58;;;;;;;;;;5065595;28;20104;-74
2022/09/13 06:00:12;;;;;;;5.55;2.60;;;;;;;;;;5067787;28;20033;-75
2022/09/13 06:02:39;;;;;;;4.63;2.40;;;;;;;;;;5067623;28;20031;-74
2022/09/13 06:05:05;;;;;;;5.85;2.65;;;;;;;;;;5067647;28;20083;-75
2022/09/13 06:07:31;;;;;;;7.35;3.17;;;;;;;;;;5065251;28;20017;-75
2022/09/13 06:09:57;;;;;;;6.28;3.17;;;;;;;;;;5068262;28;20503;-75
2022/09/13 06:12:24;;;;;;;5.05;3.70;;;;;;;;;;5068301;28;20025;-75
2022/09/13 06:14:50;;;;;;;4.68;2.97;;;;;;;;;;5068425;28;20035;-75
2022/09/13 06:17:16;;;;;;;5.47;2.67;;;;;;;;;;5064509;28;20029;-74
2022/09/13 06:19:43;;;;;;;4.50;2.50;;;;;;;;;;5068675;28;20024;-75
2022/09/13 06:22:09;;;;;;;3.25;2.42;;;;;;;;;;5066537;28;20020;-75
2022/09/13 06:24:36;;;;;;;6.25;2.47;;;;;;;;;;5068510;28;20025;-74
2022/09/13 06:27:03;;;;;;;4.00;2.28;;;;;;;;;;5064961;28;20026;-75
2022/09/13 06:29:29;;;;;;;3.92;2.58;;;;;;;;;;5067907;28;20024;-74
2022/09/13 06:31:55;;;;;;;5.72;2.72;;;;;;;;;;5067257;28;20028;-74
2022/09/13 06:34:21;;;;;;;5.18;2.30;;;;;;;;;;5063804;28;20029;-75
2022/09/13 06:36:47;;;;;;;5.03;2.45;;;;;;;;;;5065820;28;20029;-76
2022/09/13 06:39:13;;;;;;;3.50;2.40;;;;;;;;;;5068109;28;20036;-75
2022/09/13 06:41:39;;;;;;;4.13;2.45;;;;;;;;;;5065892;28;20032;-76
2022/09/13 06:44:05;;;;;;;3.67;2.40;;;;;;;;;;5067362;28;20392;-75
2022/09/13 06:46:32;;;;;;;4.68;2.40;;;;;;;;;;5066938;28;20478;-75
2022/09/13 06:49:03;;;;;;;4.20;2.50;;;;;;;;;;5068723;28;20055;-74
2022/09/13 06:51:29;;;;;;;4.57;2.67;;;;;;;;;;5067784;28;20070;-76
2022/09/13 06:53:56;;;;;;;3.83;2.90;;;;;;;;;;5068242;28;20396;-76
2022/09/13 06:56:24;;;;;;;5.82;2.70;;;;;;;;;;5061822;28;20142;-75
2022/09/13 06:58:51;;;;;;;6.40;3.10;;;;;;;;;;5066344;28;20491;-75
2022/09/13 07:01:19;;;;;;;4.72;2.97;;;;;;;;;;5066953;28;20024;-74
2022/09/13 07:03:47;;;;;;;4.68;2.60;;;;;;;;;;5065434;28;20016;-75
2022/09/13 07:06:23;;;;;;;7.00;3.17;;;;;;;;;;5068427;28;20098;-75
2022/09/13 07:08:51;;;;;;;6.95;3.53;;;;;;;;;;5059267;28;20021;-75
2022/09/13 07:11:18;;;;;;;2.97;2.33;;;;;;;;;;5067194;28;20035;-75
2022/09/13 07:13:51;;;;;;;4.82;2.90;;;;;;;;;;5055816;28;20365;-75
2022/09/13 07:16:18;;;;;;;9.00;3.35;;;;;;;;;;5063454;28;20562;-76
2022/09/13 07:18:45;;;;;;;10.02;3.60;;;;;;;;;;5064526;28;20020;-75
2022/09/13 07:21:11;;;;;;;5.55;3.38;;;;;;;;;;5061493;28;20020;-74
2022/09/13 07:23:38;;;;;;;3.08;2.50;;;;;;;;;;5050230;28;20375;-76
2022/09/13 07:26:05;;;;;;;6.72;3.30;;;;;;;;;;5079609;28;20029;-75
2022/09/13 07:28:34;;;;;;;5.40;2.67;;;;;;;;;;5069681;28;20349;-75
2022/09/13 07:31:06;;;;;;;6.68;2.50;;;;;;;;;;5063182;28;20027;-76
2022/09/13 07:33:32;;;;;;;7.78;2.83;;;;;;;;;;5064945;28;20037;-75
2022/09/13 07:36:00;;;;;;;4.32;2.70;;;;;;;;;;5065381;28;20027;-75
2022/09/13 07:38:26;;;;;;;3.47;2.15;;;;;;;;;;5080007;28;20257;-75
2022/09/13 07:40:57;;;;;;;4.80;3.20;;;;;;;;;;5067610;28;20471;-75
2022/09/13 07:43:23;;;;;;;8.27;2.85;;;;;;;;;;5055292;28;20025;-75
2022/09/13 07:45:56;;;;;;;5.53;2.53;;;;;;;;;;5072789;28;20436;-75
2022/09/13 07:48:22;;;;;;;6.18;2.42;;;;;;;;;;5062873;28;20103;-75
2022/09/13 07:50:59;;;;;;;9.43;2.38;;;;;;;;;;5065081;28;20675;-75
2022/09/13 07:53:25;;;;;;;4.97;2.30;;;;;;;;;;5049525;28;20051;-75
2022/09/13 07:55:51;;;;;;;11.65;2.50;;;;;;;;;;5074336;28;20033;-75
2022/09/13 07:58:17;;;;;;;3.58;2.10;;;;;;;;;;5078572;28;20024;-75
2022/09/13 08:00:44;;;;;;;6.05;2.30;;;;;;;;;;5066483;28;20366;-73
2022/09/13 08:03:11;;;;;;;2.60;1.92;;;;;;;;;;5071865;28;20020;-75
2022/09/13 08:05:40;;;;;;;4.53;2.97;;;;;;;;;;5063271;28;20056;-75
2022/09/13 08:08:07;;;;;;;6.00;2.47;;;;;;;;;;5070276;28;20097;-76
2022/09/13 08:10:33;;;;;;;3.13;2.25;;;;;;;;;;5072002;28;20025;-75
2022/09/13 08:12:59;;;;;;;2.88;2.25;;;;;;;;;;5072191;28;20020;-76
2022/09/13 08:15:25;;;;;;;4.43;2.22;;;;;;;;;;5060747;28;20050;-76
2022/09/13 08:17:52;;;;;;;5.10;3.15;;;;;;;;;;5070054;28;20025;-76
2022/09/13 08:20:19;;;;;;;4.57;2.60;;;;;;;;;;5084963;28;20020;-75
2022/09/13 08:22:45;;;;;;;8.35;2.60;;;;;;;;;;5066688;28;20023;-74
2022/09/13 08:25:11;;;;;;;3.58;2.08;;;;;;;;;;5068291;28;20446;-74
2022/09/13 08:27:38;;;;;;;6.32;2.38;;;;;;;;;;5071737;28;20106;-76
2022/09/13 08:30:04;;;;;;;7.18;2.50;;;;;;;;;;5069814;28;20016;-76
2022/09/13 08:32:30;;;;;;;3.33;2.03;;;;;;;;;;5070682;28;20021;-76
2022/09/13 08:34:56;;;;;;;3.17;2.30;;;;;;;;;;5065846;28;20489;-75
2022/09/13 08:37:23;;;;;;;2.53;2.10;;;;;;;;;;5066358;28;20047;-76
2022/09/13 08:39:49;;;;;;;7.53;2.97;;;;;;;;;;5085139;28;20111;-76
2022/09/13 08:42:34;;;;;;;3.65;2.22;;;;;;;;;;5073250;28;20037;-76
2022/09/13 08:45:00;;;;;;;3.15;2.20;;;;;;;;;;5072253;28;20067;-76
2022/09/13 08:47:42;;;;;;;7.18;2.10;;;;;;;;;;5071870;28;20105;-76
2022/09/13 08:50:17;;;;;;;4.00;2.20;;;;;;;;;;5063998;28;20085;-75
2022/09/13 08:52:46;;;;;;;7.50;2.60;;;;;;;;;;5068526;28;20016;-75
2022/09/13 08:55:33;;;;;;;4.43;2.30;;;;;;;;;;5070405;28;20028;-75
2022/09/13 08:58:08;;;;;;;5.47;2.15;;;;;;;;;;5071055;28;20362;-75
2022/09/13 09:00:34;;;;;;;;;;;;;;;;;;5063711;28;20430;-75
2022/09/13 09:03:10;;;;;;;8.45;2.30;;;;;;;;;;5066204;28;20003;-76
2022/09/13 09:05:43;;;;;;;3.90;1.98;;;;;;;;;;5067758;28;20059;-75
2022/09/13 09:08:15;;;;;;;3.70;2.45;;;;;;;;;;5066227;28;20017;-75
2022/09/13 09:10:44;;;;;;;5.10;2.30;;;;;;;;;;5067233;28;20032;-75
2022/09/13 09:13:19;;;;;;;5.00;2.30;;;;;;;;;;5064890;28;20078;-75
2022/09/13 09:15:45;;;;;;;;;;;;;;;;;;5058472;28;20059;-76
2022/09/13 09:18:14;;;;;;;6.45;2.20;;;;;;;;;;5070142;28;19905;-75
2022/09/13 09:20:43;;;;;;;4.07;2.10;;;;;;;;;;5066654;28;20040;-75
2022/09/13 09:23:15;;;;;;;4.93;2.00;;;;;;;;;;5081857;28;20029;-75
2022/09/13 09:25:41;;;;;;;7.35;2.92;;;;;;;;;;5067900;28;20115;-75
2022/09/13 09:28:18;;;;;;;2.83;1.90;;;;;;;;;;5061311;28;20466;-76
2022/09/13 09:31:22;;;;;;;5.53;2.38;;;;;;;;;;5062011;28;20108;-75
2022/09/13 09:33:58;;;;;;;6.75;2.53;;;;;;;;;;5034514;28;20036;-76
2022/09/13 09:36:36;;;;;;;5.60;2.28;;;;;;;;;;5046133;28;20020;-76
2022/09/13 09:39:05;;;;;;;3.80;2.00;;;;;;;;;;5059008;28;20090;-75
2022/09/13 09:41:33;;;;;;;3.97;2.00;;;;;;;;;;5069845;28;20024;-75
2022/09/13 09:44:16;;;;;;;6.22;1.95;;;;;;;;;;5067482;28;20074;-75
2022/09/13 09:46:43;;;;;;;4.10;1.85;;;;;;;;;;5069359;28;20047;-76
2022/09/13 09:52:14;;;;;;;6.13;2.30;;;;;;;;;;5058055;28;20424;-74
2022/09/13 09:54:40;;;;;;;6.05;2.08;;;;;;;;;;5063824;28;20124;-74
2022/09/13 09:57:07;;;;;;;4.28;1.95;;;;;;;;;;5068953;28;20029;-73
2022/09/13 09:59:34;;;;;;;3.13;1.90;;;;;;;;;;5066999;28;20493;-74
2022/09/13 10:02:03;;;;;;;3.80;1.92;;;;;;;;;;5068847;28;20028;-74
2022/09/13 10:04:30;;;;;;;2.05;1.52;;;;;;;;;;5058171;28;20046;-77
2022/09/13 10:07:22;;;;;;;5.10;1.85;;;;;;;;;;5078110;28;20045;-75
2022/09/13 10:09:56;;;;;;;7.35;2.08;;;;;;;;;;5069337;28;20032;-76
2022/09/13 10:12:28;;;;;;;3.53;1.80;;;;;;;;;;5071053;28;20078;-73
2022/09/13 10:15:02;;;;;;;3.25;1.90;;;;;;;;;;5073784;28;20492;-72
2022/09/13 10:17:29;;;;;;;5.75;2.25;;;;;;;;;;5071066;28;20573;-74
2022/09/13 10:20:00;;;;;;;4.07;1.80;;;;;;;;;;5074968;28;20035;-75
2022/09/13 10:22:27;;;;;;;4.38;2.15;;;;;;;;;;5073719;28;20934;-75
2022/09/13 10:24:53;;;;;;;5.55;1.80;;;;;;;;;;5067377;28;20029;-75
2022/09/13 10:27:30;;;;;;;4.15;1.70;;;;;;;;;;5074128;28;20009;-75
2022/09/13 10:29:58;;;;;;;2.78;2.00;;;;;;;;;;5068198;28;20268;-75
2022/09/13 10:32:25;;;;;;;3.67;1.90;;;;;;;;;;5059704;28;20024;-75
2022/09/13 10:34:52;;;;;;;3.17;1.75;;;;;;;;;;5073849;28;20038;-75
2022/09/13 10:37:25;;;;;;;2.70;1.77;;;;;;;;;;5070135;28;20033;-75
2022/09/13 10:39:58;;;;;;;3.28;1.95;;;;;;;;;;5072993;28;20036;-75
2022/09/13 10:42:25;;;;;;;3.05;1.75;;;;;;;;;;5070488;28;20035;-75
2022/09/13 10:44:56;;;;;;;2.08;1.75;;;;;;;;;;5070487;28;20032;-75
2022/09/13 10:47:24;;;;;;;4.18;2.15;;;;;;;;;;5071771;28;20028;-75
2022/09/13 10:49:51;;;;;;;5.35;1.90;;;;;;;;;;5070265;28;20161;-75
2022/09/13 10:52:30;;;;;;;5.03;1.67;;;;;;;;;;5074446;28;20035;-75
2022/09/13 10:54:56;;;;;;;7.20;2.10;;;;;;;;;;5076346;28;20781;-75
2022/09/13 10:57:32;;;;;;;2.88;2.00;;;;;;;;;;5066879;28;20038;-75
2022/09/13 10:59:58;;;;;;;6.30;1.90;;;;;;;;;;5062483;28;20115;-75
2022/09/13 11:02:36;;;;;;;3.90;1.85;;;;;;;;;;5061472;28;20088;-74
2022/09/13 11:05:05;;;;;;;5.03;2.03;;;;;;;;;;5074550;28;20061;-75
2022/09/13 11:07:34;;;;;;;3.90;2.00;;;;;;;;;;5077730;28;20012;-75
2022/09/13 11:10:10;;;;;;;7.38;2.42;;;;;;;;;;5074285;28;20059;-75
2022/09/13 11:12:39;;;;;;;4.05;2.60;;;;;;;;;;5073734;28;20059;-74
2022/09/13 11:15:26;;;;;;;10.68;2.80;;;;;;;;;;5078635;28;20137;-89
2022/09/13 11:18:12;;;;;;;2.50;2.03;;;;;;;;;;5077853;28;20020;-76
2022/09/13 11:20:45;;;;;;;4.43;1.83;;;;;;;;;;5068820;28;20031;-79
2022/09/13 11:23:23;;;;;;;6.82;1.92;;;;;;;;;;5078119;28;20032;-79
2022/09/13 11:25:56;;;;;;;3.33;2.08;;;;;;;;;;5073582;28;20028;-76
2022/09/13 11:28:28;;;;;;;4.25;1.73;;;;;;;;;;5078805;28;20024;-76
2022/09/13 11:31:12;;;;;;;5.07;1.92;;;;;;;;;;5071772;28;20021;-75
2022/09/13 11:33:48;;;;;;;3.58;2.50;;;;;;;;;;5074816;28;20174;-75
2022/09/13 11:36:17;;;;;;;4.50;2.38;;;;;;;;;;5076544;28;20031;-76
2022/09/13 11:38:43;;;;;;;4.20;2.03;;;;;;;;;;5079832;28;20066;-74
2022/09/13 11:41:09;;;;;;;6.82;2.53;;;;;;;;;;5079481;28;20058;-74
2022/09/13 11:43:35;;;;;;;8.00;3.03;;;;;;;;;;5081502;28;20544;-75
2022/09/13 11:46:26;;;;;;;5.30;3.42;;;;;;;;;;5076866;28;20031;-75
2022/09/13 11:48:52;;;;;;;5.68;2.80;;;;;;;;;;5078514;28;20131;-74
2022/09/13 11:51:35;;;;;;;6.55;2.20;;;;;;;;;;5080306;28;20024;-75
2022/09/13 11:54:07;;;;;;;3.40;1.98;;;;;;;;;;5080223;28;20119;-75
2022/09/13 11:56:42;;;;;;;5.85;2.30;;;;;;;;;;5083681;28;20031;-75
2022/09/13 11:59:18;;;;;;;6.63;2.10;;;;;;;;;;5079524;28;20079;-75
2022/09/13 12:01:45;;;;;;;4.32;1.90;;;;;;;;;;5079767;28;20036;-75
2022/09/13 12:04:38;;;;;;;2.95;1.75;;;;;;;;;;5081960;28;20036;-75
2022/09/13 12:07:08;;;;;;;3.60;2.00;;;;;;;;;;5078916;28;20036;-76
2022/09/13 12:09:36;;;;;;;4.97;2.53;;;;;;;;;;5080788;28;20114;-75
2022/09/13 12:12:04;;;;;;;2.53;1.63;;;;;;;;;;5077792;28;20016;-76
2022/09/13 12:14:35;;;;;;;1.90;1.65;;;;;;;;;;5096977;28;20307;-77
2022/09/13 12:17:10;;;;;;;4.65;1.60;;;;;;;;;;5079670;28;20054;-75
2022/09/13 12:19:41;;;;;;;5.40;1.80;;;;;;;;;;5079717;28;20032;-78
2022/09/13 12:22:08;;;;;;;4.97;1.70;;;;;;;;;;5082919;28;20653;-76
2022/09/13 12:24:40;;;;;;;5.75;2.03;;;;;;;;;;5077612;28;20058;-77
2022/09/13 12:27:13;;;;;;;4.78;2.05;;;;;;;;;;5081217;28;20727;-78
2022/09/13 12:29:50;;;;;;;4.05;1.90;;;;;;;;;;5080169;28;20035;-77
2022/09/13 12:32:17;;;;;;;4.07;1.80;;;;;;;;;;5076914;28;20048;-78
2022/09/13 12:34:43;;;;;;;5.78;2.03;;;;;;;;;;5079205;28;20030;-76
2022/09/13 12:37:16;;;;;;;4.05;1.90;;;;;;;;;;5078457;28;20070;-76
2022/09/13 12:40:02;;;;;;;4.65;1.75;;;;;;;;;;5080568;28;20024;-75
2022/09/13 12:43:07;;;;;;;2.72;2.17;;;;;;;;;;5076731;28;20047;-76
2022/09/13 12:45:36;;;;;;;3.53;1.88;;;;;;;;;;5036229;28;20079;-77
2022/09/13 12:48:17;;;;;;;4.95;1.88;;;;;;;;;;5036477;28;20131;-77
2022/09/13 12:51:02;;;;;;;7.68;2.13;;;;;;;;;;5064716;28;20500;-77
2022/09/13 12:53:28;;;;;;;3.65;1.73;;;;;;;;;;5076178;28;20058;-77
2022/09/13 12:55:57;;;;;;;4.90;1.90;;;;;;;;;;5082012;28;20032;-79
2022/09/13 12:58:26;;;;;;;7.38;2.03;;;;;;;;;;5082960;28;20485;-77
2022/09/13 13:01:12;;;;;;;4.00;1.95;;;;;;;;;;5080466;28;20149;-78
2022/09/13 13:03:45;;;;;;;3.67;1.70;;;;;;;;;;5070909;28;20035;-78
2022/09/13 13:06:32;;;;;;;6.77;2.47;;;;;;;;;;5079985;28;20052;-76
2022/09/13 13:09:00;;;;;;;4.35;1.88;;;;;;;;;;5086627;28;20028;-77
2022/09/13 13:11:28;;;;;;;3.58;1.75;;;;;;;;;;5080406;28;20043;-77
2022/09/13 13:13:54;;;;;;;4.00;1.67;;;;;;;;;;5081786;28;20039;-77
2022/09/13 13:16:23;;;;;;;2.78;1.60;;;;;;;;;;5081401;28;20088;-77
2022/09/13 13:18:53;;;;;;;3.60;1.90;;;;;;;;;;5081395;28;20034;-77
2022/09/13 13:21:31;;;;;;;3.63;2.13;;;;;;;;;;5084207;28;20024;-78
2022/09/13 13:24:15;;;;;;;6.82;3.15;;;;;;;;;;5076718;28;20039;-77
2022/09/13 13:26:46;;;;;;;2.77;1.53;;;;;;;;;;5081568;28;20086;-77
2022/09/13 13:29:19;;;;;;;3.00;1.73;;;;;;;;;;5081252;28;20044;-76
2022/09/13 13:32:06;;;;;;;6.07;2.25;;;;;;;;;;5081822;28;20045;-78
2022/09/13 13:34:45;;;;;;;5.97;1.75;;;;;;;;;;5081706;28;20114;-76
2022/09/13 13:37:17;;;;;;;6.07;2.25;;;;;;;;;;5071666;28;20062;-75
2022/09/13 13:39:44;;;;;;;3.42;1.90;;;;;;;;;;5073283;28;20036;-75
2022/09/13 13:42:28;;;;;;;6.65;1.95;;;;;;;;;;5058636;28;20059;-75
2022/09/13 13:44:54;;;;;;;6.22;2.28;;;;;;;;;;5068517;28;20860;-75
2022/09/13 13:47:20;;;;;;;4.90;1.92;;;;;;;;;;5069593;28;20028;-76
2022/09/13 13:49:51;;;;;;;3.28;1.80;;;;;;;;;;5076866;28;20028;-76
2022/09/13 13:52:23;;;;;;;4.20;2.13;;;;;;;;;;5066453;28;20024;-76
2022/09/13 13:55:00;;;;;;;6.53;2.00;;;;;;;;;;5070301;28;20035;-76
2022/09/13 13:57:26;;;;;;;2.47;1.60;;;;;;;;;;5074046;28;20032;-76
2022/09/13 13:59:57;;;;;;;4.10;1.80;;;;;;;;;;5076999;28;20046;-76
2022/09/13 14:02:29;;;;;;;3.63;2.42;;;;;;;;;;5076398;28;20902;-76
2022/09/13 14:05:11;;;;;;;3.97;1.75;;;;;;;;;;5077773;28;20044;-74
2022/09/13 14:07:50;;;;;;;2.28;1.48;;;;;;;;;;5077008;28;20108;-75
2022/09/13 14:10:16;;;;;;;3.75;1.70;;;;;;;;;;5075907;28;20020;-76
2022/09/13 14:12:45;;;;;;;7.65;2.50;;;;;;;;;;5079881;28;20030;-75
2022/09/13 14:15:14;;;;;;;3.63;1.67;;;;;;;;;;5077390;28;20036;-75
2022/09/13 14:18:02;;;;;;;4.95;1.83;;;;;;;;;;5078538;28;20626;-75
2022/09/13 14:20:28;;;;;;;4.40;1.92;;;;;;;;;;5076160;28;20024;-75
2022/09/13 14:23:13;;;;;;;4.72;1.90;;;;;;;;;;5076175;28;20111;-76
2022/09/13 14:25:39;;;;;;;4.65;2.10;;;;;;;;;;5077706;28;20823;-75
2022/09/13 14:28:06;;;;;;;4.03;2.08;;;;;;;;;;5069763;28;20475;-75
2022/09/13 14:30:35;;;;;;;7.07;2.10;;;;;;;;;;5077861;28;20039;-75
2022/09/13 14:33:04;;;;;;;6.65;2.78;;;;;;;;;;5074376;28;20024;-75
2022/09/13 14:35:39;;;;;;;4.32;2.40;;;;;;;;;;5073562;28;20093;-75
2022/09/13 14:38:11;;;;;;;2.85;2.10;;;;;;;;;;5073137;28;20024;-75
2022/09/13 14:40:37;;;;;;;2.95;2.10;;;;;;;;;;5069571;28;20039;-75
2022/09/13 14:43:15;;;;;;;3.78;2.50;;;;;;;;;;5074362;28;20417;-76
2022/09/13 14:45:42;;;;;;;3.17;2.25;;;;;;;;;;5072804;28;20033;-76
2022/09/13 14:48:37;;;;;;;3.63;1.92;;;;;;;;;;5078849;28;20027;-76
2022/09/13 14:51:07;;;;;;;3.33;2.33;;;;;;;;;;5067178;28;20029;-76
2022/09/13 14:53:34;;;;;;;2.88;2.22;;;;;;;;;;5075975;28;20016;-76
2022/09/13 14:56:06;;;;;;;7.07;2.20;;;;;;;;;;5078698;28;20056;-76
2022/09/13 14:58:43;;;;;;;3.90;2.10;;;;;;;;;;5074362;28;20485;-76
2022/09/13 15:01:10;;;;;;;6.03;2.25;;;;;;;;;;5074811;28;20029;-75
2022/09/13 15:03:40;;;;;;;3.40;1.98;;;;;;;;;;5075996;28;20042;-75
2022/09/13 15:06:06;;;;;;;5.07;2.38;;;;;;;;;;5075506;28;20048;-78